createdAt,value
2023-03-29T00:01:10.311Z,4.27
2023-03-29T00:03:36.799Z,3.75
2023-03-29T00:06:03.513Z,3.67
2023-03-29T00:08:31.382Z,4.50
2023-03-29T00:10:59.130Z,3.67
2023-03-29T00:13:26.548Z,3.83
2023-03-29T00:15:53.642Z,7.63
2023-03-29T00:18:20.428Z,3.10
2023-03-29T00:20:46.912Z,5.13
2023-03-29T00:23:13.251Z,4.10
2023-03-29T00:25:44.121Z,4.63
2023-03-29T00:28:10.468Z,2.70
2023-03-29T00:30:36.769Z,3.10
2023-03-29T00:33:03.843Z,3.20
2023-03-29T00:35:30.437Z,5.47
2023-03-29T00:37:57.655Z,5.18
2023-03-29T00:40:23.988Z,3.10
2023-03-29T00:42:50.385Z,2.77
2023-03-29T00:45:17.728Z,3.97
2023-03-29T00:47:49.676Z,3.30
2023-03-29T00:50:18.770Z,3.37
2023-03-29T00:52:48.477Z,2.60
2023-03-29T00:55:17.743Z,4.30
2023-03-29T00:57:46.491Z,4.35
2023-03-29T01:00:16.134Z,3.53
2023-03-29T01:02:43.393Z,2.00
2023-03-29T01:05:13.124Z,3.30
2023-03-29T01:08:00.938Z,3.03
2023-03-29T01:10:33.543Z,3.55
2023-03-29T01:13:11.277Z,3.13
2023-03-29T01:15:40.814Z,2.45
2023-03-29T01:18:08.905Z,2.63
2023-03-29T01:20:35.405Z,3.03
2023-03-29T01:23:26.859Z,3.15
2023-03-29T01:26:02.991Z,2.72
2023-03-29T01:28:39.170Z,3.50
2023-03-29T01:31:08.521Z,2.80
2023-03-29T01:33:38.907Z,3.33
2023-03-29T01:36:09.077Z,3.87
2023-03-29T01:38:52.942Z,2.80
2023-03-29T01:41:20.102Z,2.97
2023-03-29T01:43:58.689Z,2.50
2023-03-29T01:46:29.626Z,5.32
2023-03-29T01:49:13.995Z,4.10
2023-03-29T01:51:42.466Z,3.53
2023-03-29T01:54:17.899Z,2.80
2023-03-29T01:56:45.643Z,3.67
2023-03-29T01:59:14.119Z,4.05
2023-03-29T02:01:42.422Z,3.70
2023-03-29T02:04:11.213Z,3.10
2023-03-29T02:06:37.794Z,3.37
2023-03-29T02:09:05.423Z,5.03
2023-03-29T02:11:32.108Z,3.00
2023-03-29T02:13:58.628Z,4.20
2023-03-29T02:16:25.073Z,3.17
2023-03-29T02:18:52.971Z,3.83
2023-03-29T02:21:27.821Z,3.47
2023-03-29T02:23:55.120Z,4.50
2023-03-29T02:26:22.404Z,3.20
2023-03-29T02:28:48.859Z,3.90
2023-03-29T02:31:18.990Z,3.05
2023-03-29T02:33:45.638Z,4.97
2023-03-29T02:36:18.078Z,3.63
2023-03-29T02:38:44.973Z,4.37
2023-03-29T02:41:12.140Z,4.93
2023-03-29T02:43:40.675Z,3.95
2023-03-29T02:46:07.761Z,3.10
2023-03-29T02:48:35.395Z,5.72
2023-03-29T02:51:03.364Z,4.20
2023-03-29T02:53:34.382Z,3.60
2023-03-29T02:56:04.069Z,4.78
2023-03-29T02:58:31.678Z,2.38
2023-03-29T03:00:59.285Z,4.40
2023-03-29T03:03:26.062Z,3.78
2023-03-29T03:05:53.846Z,2.30
2023-03-29T03:08:20.522Z,5.03
2023-03-29T03:10:47.689Z,4.05
2023-03-29T03:13:14.036Z,4.95
2023-03-29T03:15:42.772Z,3.50
2023-03-29T03:18:10.548Z,5.30
2023-03-29T03:20:36.991Z,2.75
2023-03-29T03:23:03.490Z,3.77
2023-03-29T03:25:29.961Z,2.93
2023-03-29T03:27:56.359Z,4.13
2023-03-29T03:30:22.798Z,4.73
2023-03-29T03:32:49.973Z,3.97
2023-03-29T03:35:16.644Z,4.35
2023-03-29T03:37:42.975Z,3.13
2023-03-29T03:40:11.623Z,3.80
2023-03-29T03:42:39.103Z,4.60
2023-03-29T03:45:05.914Z,3.93
2023-03-29T03:47:32.519Z,4.65
2023-03-29T03:49:58.994Z,4.90
2023-03-29T03:52:26.204Z,5.00
2023-03-29T03:54:52.635Z,8.38
2023-03-29T03:57:19.025Z,5.83
2023-03-29T03:59:45.411Z,5.80
2023-03-29T04:02:11.921Z,5.63
2023-03-29T04:04:39.419Z,4.47
2023-03-29T04:07:05.917Z,3.83
2023-03-29T04:09:33.345Z,2.72
2023-03-29T04:12:01.407Z,4.78
2023-03-29T04:14:28.025Z,4.97
2023-03-29T04:16:54.816Z,2.85
2023-03-29T04:19:21.995Z,3.75
2023-03-29T04:21:49.506Z,6.38
2023-03-29T04:24:17.162Z,4.13
2023-03-29T04:26:43.753Z,5.03
2023-03-29T04:29:10.125Z,4.00
2023-03-29T04:31:36.695Z,4.00
2023-03-29T04:34:03.310Z,3.42
2023-03-29T04:36:29.735Z,3.78
2023-03-29T04:38:56.210Z,3.10
2023-03-29T04:41:22.726Z,4.35
2023-03-29T04:43:49.165Z,4.82
2023-03-29T04:46:15.630Z,3.27
2023-03-29T04:48:42.586Z,5.35
2023-03-29T04:51:08.965Z,4.45
2023-03-29T04:53:35.334Z,3.85
2023-03-29T04:56:02.511Z,6.00
2023-03-29T04:58:32.180Z,4.10
2023-03-29T05:00:58.961Z,9.10
2023-03-29T05:03:25.533Z,6.70
2023-03-29T05:05:51.946Z,5.13
2023-03-29T05:08:18.562Z,4.45
2023-03-29T05:10:44.952Z,4.40
2023-03-29T05:13:11.316Z,4.70
2023-03-29T05:15:39.032Z,5.28
2023-03-29T05:18:07.208Z,4.85
2023-03-29T05:20:33.642Z,7.13
2023-03-29T05:23:00.387Z,8.45
2023-03-29T05:25:26.975Z,10.02
2023-03-29T05:27:53.899Z,7.97
2023-03-29T05:30:20.631Z,5.95
2023-03-29T05:32:47.896Z,5.05
2023-03-29T05:35:14.519Z,8.07
2023-03-29T05:37:40.961Z,4.88
2023-03-29T05:40:10.240Z,3.77
2023-03-29T05:42:37.943Z,5.47
2023-03-29T05:45:04.522Z,6.53
2023-03-29T05:47:30.930Z,7.35
2023-03-29T05:49:57.345Z,6.32
2023-03-29T05:52:24.554Z,5.68
2023-03-29T05:54:51.478Z,8.98
2023-03-29T05:57:17.836Z,7.32
2023-03-29T05:59:44.325Z,6.22
2023-03-29T06:02:11.564Z,5.28
2023-03-29T06:04:38.310Z,4.38
2023-03-29T06:07:05.517Z,9.55
2023-03-29T06:09:32.947Z,5.15
2023-03-29T06:11:59.403Z,7.32
2023-03-29T06:14:27.129Z,5.93
2023-03-29T06:16:54.979Z,3.47
2023-03-29T06:19:21.591Z,6.07
2023-03-29T06:21:48.100Z,5.10
2023-03-29T06:24:14.467Z,7.75
2023-03-29T06:26:41.980Z,5.75
2023-03-29T06:29:08.496Z,6.57
2023-03-29T06:31:36.230Z,6.93
2023-03-29T06:34:04.667Z,5.63
2023-03-29T06:36:34.096Z,4.80
2023-03-29T06:39:00.853Z,6.95
2023-03-29T06:41:27.228Z,6.97
2023-03-29T06:43:54.941Z,4.93
2023-03-29T06:46:21.510Z,5.35
2023-03-29T06:48:48.258Z,8.35
2023-03-29T06:51:14.665Z,7.00
2023-03-29T06:53:41.374Z,7.82
2023-03-29T06:56:09.742Z,9.10
2023-03-29T06:58:36.397Z,8.95
2023-03-29T07:01:03.924Z,5.97
2023-03-29T07:03:30.595Z,19.70
2023-03-29T07:06:09.579Z,11.13
2023-03-29T07:08:43.060Z,8.88
2023-03-29T07:11:12.465Z,7.85
2023-03-29T07:13:42.579Z,5.10
2023-03-29T07:16:12.678Z,7.10
2023-03-29T07:18:41.283Z,8.10
2023-03-29T07:21:07.848Z,7.80
2023-03-29T07:23:34.603Z,8.23
2023-03-29T07:26:02.311Z,7.20
2023-03-29T07:28:28.716Z,5.13
2023-03-29T07:31:02.106Z,6.32
2023-03-29T07:33:29.431Z,5.53
2023-03-29T07:35:56.044Z,7.97
2023-03-29T07:38:22.736Z,5.78
2023-03-29T07:40:49.195Z,6.97
2023-03-29T07:43:15.563Z,5.07
2023-03-29T07:45:42.367Z,9.68
2023-03-29T07:48:08.996Z,8.45
2023-03-29T07:50:35.538Z,6.32
2023-03-29T07:53:02.873Z,7.30
2023-03-29T07:55:34.948Z,8.85
2023-03-29T07:58:04.197Z,11.05
2023-03-29T08:00:30.653Z,7.53
2023-03-29T08:02:57.333Z,4.88
2023-03-29T08:05:37.683Z,6.28
2023-03-29T08:08:08.339Z,6.10
2023-03-29T08:10:36.259Z,8.07
2023-03-29T08:13:04.461Z,9.65
2023-03-29T08:15:30.824Z,6.60
2023-03-29T08:17:57.282Z,9.77
2023-03-29T08:20:23.789Z,9.27
2023-03-29T08:22:50.155Z,8.30
2023-03-29T08:25:16.708Z,7.90
2023-03-29T08:27:43.275Z,9.80
2023-03-29T08:30:09.992Z,18.17
2023-03-29T08:32:36.910Z,5.38
2023-03-29T08:35:04.377Z,7.80
2023-03-29T08:37:31.345Z,6.72
2023-03-29T08:39:58.039Z,6.05
2023-03-29T08:42:37.629Z,6.97
2023-03-29T08:45:22.953Z,6.07
2023-03-29T08:48:08.493Z,9.75
2023-03-29T08:50:47.844Z,11.57
2023-03-29T08:53:18.863Z,9.65
2023-03-29T08:55:46.254Z,9.27
2023-03-29T08:58:15.769Z,8.85
2023-03-29T09:00:47.353Z,6.45
2023-03-29T09:03:19.935Z,9.20
2023-03-29T09:05:47.468Z,9.43
2023-03-29T09:08:17.360Z,80.68
2023-03-29T09:10:46.639Z,24.98
2023-03-29T09:13:16.222Z,22.77
2023-03-29T09:15:42.651Z,6.80
2023-03-29T09:18:21.198Z,5.25
2023-03-29T09:20:53.620Z,7.15
2023-03-29T09:23:38.610Z,4.90
2023-03-29T09:26:12.688Z,9.30
2023-03-29T09:28:46.418Z,10.38
2023-03-29T09:31:19.743Z,9.43
2023-03-29T09:33:49.715Z,9.63
2023-03-29T09:36:30.342Z,6.50
2023-03-29T09:38:56.862Z,11.55
2023-03-29T09:41:27.024Z,8.20
2023-03-29T09:43:54.272Z,7.38
2023-03-29T09:46:23.744Z,4.95
2023-03-29T09:48:50.709Z,5.38
2023-03-29T09:51:17.773Z,6.90
2023-03-29T09:53:44.194Z,6.55
2023-03-29T09:56:10.867Z,6.82
2023-03-29T09:58:37.427Z,4.72
2023-03-29T10:01:06.120Z,7.28
2023-03-29T10:03:34.872Z,7.55
2023-03-29T10:06:02.997Z,11.13
2023-03-29T10:08:49.945Z,6.40
2023-03-29T10:11:46.689Z,7.43
2023-03-29T10:14:16.692Z,3.65
2023-03-29T10:16:46.212Z,7.35
2023-03-29T10:19:18.943Z,8.20
2023-03-29T10:21:48.875Z,5.78
2023-03-29T10:24:18.717Z,8.55
2023-03-29T10:26:45.318Z,8.98
2023-03-29T10:29:12.454Z,7.00
2023-03-29T10:31:41.702Z,6.50
2023-03-29T10:34:08.998Z,11.10
2023-03-29T10:36:36.087Z,8.88
2023-03-29T10:39:06.016Z,7.90
2023-03-29T10:41:34.166Z,6.27
2023-03-29T10:44:01.439Z,8.43
2023-03-29T10:46:29.245Z,9.23
2023-03-29T10:48:59.904Z,6.20
2023-03-29T10:51:27.733Z,8.48
2023-03-29T10:53:54.226Z,7.60
2023-03-29T10:56:33.021Z,12.05
2023-03-29T10:59:18.468Z,7.45
2023-03-29T11:01:52.343Z,6.45
2023-03-29T11:04:28.284Z,5.85
2023-03-29T11:06:54.612Z,7.20
2023-03-29T11:09:44.107Z,8.98
2023-03-29T11:12:25.751Z,10.55
2023-03-29T11:14:55.025Z,11.18
2023-03-29T11:17:36.708Z,8.13
2023-03-29T11:20:12.590Z,11.27
2023-03-29T11:22:51.496Z,8.77
2023-03-29T11:25:24.524Z,9.65
2023-03-29T11:28:11.120Z,6.30
2023-03-29T11:30:57.808Z,13.82
2023-03-29T11:33:30.128Z,8.50
2023-03-29T11:36:04.175Z,11.02
2023-03-29T11:38:53.518Z,9.63
2023-03-29T11:41:27.717Z,10.02
2023-03-29T11:44:11.744Z,8.40
2023-03-29T11:46:40.035Z,8.02
2023-03-29T11:49:11.866Z,13.40
2023-03-29T11:51:41.259Z,8.95
2023-03-29T11:54:14.256Z,9.93
2023-03-29T11:56:44.209Z,11.65
2023-03-29T11:59:22.972Z,9.55
2023-03-29T12:01:52.632Z,7.90
2023-03-29T12:04:27.250Z,8.77
2023-03-29T12:07:04.327Z,8.88
2023-03-29T12:09:39.443Z,8.93
2023-03-29T12:12:05.897Z,11.23
2023-03-29T12:14:42.413Z,7.65
2023-03-29T12:17:11.877Z,10.80
2023-03-29T12:19:52.271Z,6.70
2023-03-29T12:22:18.936Z,8.93
2023-03-29T12:24:45.882Z,8.35
2023-03-29T12:27:27.861Z,9.38
2023-03-29T12:30:13.033Z,10.00
2023-03-29T12:32:57.525Z,11.70
2023-03-29T12:35:34.085Z,8.93
2023-03-29T12:38:19.226Z,10.40
2023-03-29T12:40:47.095Z,8.32
2023-03-29T12:43:16.699Z,8.18
2023-03-29T12:45:48.337Z,9.93
2023-03-29T12:48:16.743Z,9.75
2023-03-29T12:50:46.864Z,9.90
2023-03-29T12:53:27.234Z,9.90
2023-03-29T12:56:02.997Z,9.80
2023-03-29T12:58:39.400Z,11.52
2023-03-29T13:01:08.003Z,12.85
2023-03-29T13:03:35.870Z,7.05
2023-03-29T13:06:05.156Z,20.05
2023-03-29T13:08:39.893Z,18.13
2023-03-29T13:11:09.782Z,14.57
2023-03-29T13:13:37.244Z,13.32
2023-03-29T13:16:29.858Z,10.15
2023-03-29T13:19:06.537Z,8.65
2023-03-29T13:21:33.102Z,8.85
2023-03-29T13:24:09.987Z,11.13
2023-03-29T13:27:05.694Z,7.25
2023-03-29T13:29:38.020Z,8.27
2023-03-29T13:32:16.800Z,11.15
2023-03-29T13:34:47.256Z,14.38
2023-03-29T13:37:24.300Z,10.63
2023-03-29T13:39:52.896Z,10.30
2023-03-29T13:42:22.206Z,7.65
2023-03-29T13:44:51.596Z,24.15
2023-03-29T13:47:33.249Z,10.85
2023-03-29T13:50:01.019Z,11.20
2023-03-29T13:52:32.679Z,10.30
2023-03-29T13:55:06.133Z,6.88
2023-03-29T13:57:39.802Z,9.80
2023-03-29T14:00:18.077Z,11.65
2023-03-29T14:02:50.108Z,10.85
2023-03-29T14:05:23.521Z,11.48
2023-03-29T14:07:53.307Z,8.02
2023-03-29T14:10:33.056Z,13.35
2023-03-29T14:13:02.053Z,14.35
2023-03-29T14:15:38.036Z,6.75
2023-03-29T14:18:04.559Z,11.30
2023-03-29T14:20:31.436Z,9.82
2023-03-29T14:22:57.852Z,15.45
2023-03-29T14:25:24.425Z,10.48
2023-03-29T14:27:50.863Z,11.10
2023-03-29T14:30:20.113Z,11.40
2023-03-29T14:32:48.140Z,7.65
2023-03-29T14:35:14.550Z,18.98
2023-03-29T14:37:42.425Z,11.48
2023-03-29T14:40:19.131Z,16.10
2023-03-29T14:42:46.565Z,8.02
2023-03-29T14:45:14.719Z,11.18
2023-03-29T14:47:41.382Z,11.10
2023-03-29T14:50:27.576Z,12.00
2023-03-29T14:52:54.498Z,12.82
2023-03-29T14:55:23.863Z,11.85
2023-03-29T14:57:53.171Z,12.15
2023-03-29T15:00:30.364Z,9.43
2023-03-29T15:02:57.345Z,13.50
2023-03-29T15:05:25.864Z,11.40
2023-03-29T15:07:55.880Z,11.57
2023-03-29T15:10:22.460Z,11.63
2023-03-29T15:12:49.603Z,14.43
2023-03-29T15:15:16.173Z,10.07
2023-03-29T15:17:51.954Z,14.88
2023-03-29T15:20:27.072Z,15.65
2023-03-29T15:22:53.476Z,13.65
2023-03-29T15:25:20.835Z,8.52
2023-03-29T15:27:54.210Z,12.18
2023-03-29T15:30:28.088Z,16.05
2023-03-29T15:32:54.531Z,23.13
2023-03-29T15:35:23.286Z,10.73
2023-03-29T15:37:51.410Z,10.13
2023-03-29T15:40:20.161Z,14.85
2023-03-29T15:42:46.646Z,10.80
2023-03-29T15:45:16.769Z,11.35
2023-03-29T15:47:43.140Z,15.27
2023-03-29T15:50:10.418Z,15.95
2023-03-29T15:52:37.148Z,12.25
2023-03-29T15:55:03.674Z,13.57
2023-03-29T15:57:30.328Z,9.48
2023-03-29T15:59:57.358Z,12.70
2023-03-29T16:02:24.517Z,12.25
2023-03-29T16:04:51.200Z,13.88
2023-03-29T16:07:18.418Z,15.35
2023-03-29T16:09:45.840Z,13.93
2023-03-29T16:12:12.990Z,12.57
2023-03-29T16:14:39.414Z,10.13
2023-03-29T16:17:06.063Z,9.43
2023-03-29T16:19:33.690Z,17.27
2023-03-29T16:22:02.069Z,11.82
2023-03-29T16:24:31.070Z,12.82
2023-03-29T16:26:57.717Z,13.63
2023-03-29T16:29:24.655Z,9.15
2023-03-29T16:31:51.470Z,16.70
2023-03-29T16:34:19.153Z,12.82
2023-03-29T16:36:46.242Z,14.25
2023-03-29T16:39:15.873Z,10.90
2023-03-29T16:41:42.746Z,17.13
2023-03-29T16:44:13.877Z,15.65
2023-03-29T16:49:07.913Z,16.55
2023-03-29T16:51:34.351Z,14.18
2023-03-29T16:54:00.764Z,13.30
2023-03-29T16:56:28.345Z,15.45
2023-03-29T16:58:54.805Z,9.63
2023-03-29T17:01:22.609Z,10.63
2023-03-29T17:03:49.163Z,22.45
2023-03-29T17:06:15.614Z,12.63
2023-03-29T17:08:42.443Z,11.48
2023-03-29T17:11:09.024Z,11.77
2023-03-29T17:13:35.679Z,11.38
2023-03-29T17:16:02.339Z,13.70
2023-03-29T17:18:29.325Z,14.88
2023-03-29T17:20:56.620Z,17.60
2023-03-29T17:23:23.063Z,15.90
2023-03-29T17:25:49.598Z,17.10
2023-03-29T17:28:16.041Z,17.52
2023-03-29T17:30:44.411Z,23.75
2023-03-29T17:33:11.214Z,19.35
2023-03-29T17:35:37.760Z,17.73
2023-03-29T17:38:04.360Z,15.05
2023-03-29T17:40:30.828Z,15.95
2023-03-29T17:42:57.272Z,14.25
2023-03-29T17:45:23.629Z,14.15
2023-03-29T17:47:50.215Z,13.30
2023-03-29T17:50:16.878Z,13.60
2023-03-29T17:52:43.455Z,12.48
2023-03-29T17:55:16.300Z,14.45
2023-03-29T17:57:43.733Z,13.35
2023-03-29T18:00:12.233Z,14.52
2023-03-29T18:02:39.433Z,15.18
2023-03-29T18:05:06.768Z,17.08
2023-03-29T18:07:33.239Z,19.95
2023-03-29T18:09:59.663Z,14.52
2023-03-29T18:12:26.661Z,13.02
2023-03-29T18:14:53.232Z,10.80
2023-03-29T18:17:19.893Z,17.70
2023-03-29T18:19:46.476Z,14.35
2023-03-29T18:22:13.009Z,14.10
2023-03-29T18:24:39.463Z,16.48
2023-03-29T18:27:06.049Z,17.75
2023-03-29T18:29:32.582Z,17.60
2023-03-29T18:32:02.884Z,12.82
2023-03-29T18:34:30.469Z,14.95
2023-03-29T18:36:57.536Z,12.35
2023-03-29T18:39:23.986Z,12.43
2023-03-29T18:41:50.446Z,12.45
2023-03-29T18:44:16.910Z,14.85
2023-03-29T18:46:43.361Z,13.27
2023-03-29T18:49:10.002Z,17.77
2023-03-29T18:51:36.551Z,22.02
2023-03-29T18:54:04.330Z,15.20
2023-03-29T18:56:30.868Z,13.32
2023-03-29T18:58:57.350Z,30.55
2023-03-29T19:01:23.791Z,21.05
2023-03-29T19:03:50.254Z,14.90
2023-03-29T19:06:16.701Z,16.70
2023-03-29T19:08:43.154Z,16.98
2023-03-29T19:11:11.165Z,17.92
2023-03-29T19:13:37.590Z,15.05
2023-03-29T19:16:04.349Z,12.75
2023-03-29T19:18:31.128Z,16.77
2023-03-29T19:20:57.489Z,14.98
2023-03-29T19:23:28.304Z,14.55
2023-03-29T19:25:55.810Z,16.10
2023-03-29T19:28:22.672Z,19.90
2023-03-29T19:30:49.271Z,12.57
2023-03-29T19:33:16.121Z,17.05
2023-03-29T19:35:42.668Z,16.30
2023-03-29T19:38:09.089Z,21.80
2023-03-29T19:40:36.411Z,14.25
2023-03-29T19:43:02.857Z,18.45
2023-03-29T19:45:29.332Z,12.93
2023-03-29T19:47:56.772Z,16.00
2023-03-29T19:50:24.184Z,15.65
2023-03-29T19:52:50.780Z,8.90
2023-03-29T19:55:17.763Z,14.02
2023-03-29T19:57:44.143Z,19.63
2023-03-29T20:00:10.907Z,13.50
2023-03-29T20:02:37.422Z,13.75
2023-03-29T20:05:04.341Z,16.38
2023-03-29T20:07:30.805Z,13.80
2023-03-29T20:09:57.463Z,13.38
2023-03-29T20:12:23.822Z,14.68
2023-03-29T20:14:50.645Z,10.05
2023-03-29T20:17:17.069Z,11.75
2023-03-29T20:19:44.085Z,16.08
2023-03-29T20:22:11.220Z,10.95
2023-03-29T20:24:37.674Z,16.95
2023-03-29T20:27:04.558Z,18.55
2023-03-29T20:29:33.138Z,12.70
2023-03-29T20:31:59.603Z,11.35
2023-03-29T20:34:26.289Z,13.07
2023-03-29T20:36:55.224Z,13.90
2023-03-29T20:39:25.693Z,11.63
2023-03-29T20:41:52.304Z,15.63
2023-03-29T20:44:18.825Z,13.68
2023-03-29T20:47:02.032Z,24.10
2023-03-29T20:49:37.066Z,15.77
2023-03-29T20:52:07.864Z,17.90
2023-03-29T20:54:35.484Z,11.20
2023-03-29T20:57:01.925Z,13.45
2023-03-29T20:59:28.531Z,13.38
2023-03-29T21:01:55.218Z,20.98
2023-03-29T21:04:21.718Z,14.20
2023-03-29T21:06:51.341Z,20.75
2023-03-29T21:09:19.195Z,22.20
2023-03-29T21:11:45.728Z,16.02
2023-03-29T21:14:12.373Z,16.02
2023-03-29T21:16:41.722Z,16.42
2023-03-29T21:19:09.085Z,12.45
2023-03-29T21:21:36.034Z,17.05
2023-03-29T21:24:02.776Z,17.48
2023-03-29T21:26:29.238Z,13.52
2023-03-29T21:28:55.738Z,14.18
2023-03-29T21:31:22.152Z,17.10
2023-03-29T21:33:48.582Z,14.38
2023-03-29T21:36:15.295Z,14.98
2023-03-29T21:38:41.657Z,15.60
2023-03-29T21:41:12.002Z,15.93
2023-03-29T21:43:38.797Z,16.38
2023-03-29T21:46:05.434Z,17.27
2023-03-29T21:48:31.988Z,12.07
2023-03-29T21:50:58.583Z,14.98
2023-03-29T21:53:25.232Z,18.90
2023-03-29T21:55:51.899Z,15.68
2023-03-29T21:58:18.777Z,20.67
2023-03-29T22:00:46.440Z,19.27
2023-03-29T22:03:13.198Z,18.75
2023-03-29T22:05:39.639Z,14.52
2023-03-29T22:08:06.563Z,16.20
2023-03-29T22:10:32.994Z,16.48
2023-03-29T22:13:00.237Z,14.30
2023-03-29T22:15:29.355Z,12.20
2023-03-29T22:17:57.730Z,17.75
2023-03-29T22:20:25.746Z,13.02
2023-03-29T22:22:52.210Z,13.05
2023-03-29T22:25:19.173Z,15.77
2023-03-29T22:27:46.904Z,17.45
2023-03-29T22:30:14.053Z,14.63
2023-03-29T22:32:41.169Z,12.30
2023-03-29T22:35:08.098Z,15.05
2023-03-29T22:37:39.297Z,17.10
2023-03-29T22:40:09.396Z,14.18
2023-03-29T22:42:35.760Z,13.48
2023-03-29T22:45:02.192Z,17.85
2023-03-29T22:47:28.638Z,14.60
2023-03-29T22:49:55.070Z,10.63
2023-03-29T22:52:21.399Z,17.10
2023-03-29T22:54:47.868Z,15.43
2023-03-29T22:57:14.302Z,14.23
2023-03-29T22:59:41.177Z,14.05
2023-03-29T23:02:07.885Z,15.13
2023-03-29T23:04:35.445Z,11.52
2023-03-29T23:07:02.234Z,14.20
2023-03-29T23:09:28.745Z,13.90
2023-03-29T23:11:55.296Z,13.50
2023-03-29T23:14:22.713Z,16.42
2023-03-29T23:16:50.428Z,14.70
2023-03-29T23:19:16.841Z,11.32
2023-03-29T23:21:43.158Z,14.57
2023-03-29T23:24:09.622Z,17.85
2023-03-29T23:26:37.539Z,14.00
2023-03-29T23:29:04.119Z,16.45
2023-03-29T23:31:30.602Z,16.42
2023-03-29T23:33:56.973Z,15.20
2023-03-29T23:36:23.368Z,15.75
2023-03-29T23:38:49.775Z,13.00
2023-03-29T23:41:17.688Z,16.38
2023-03-29T23:43:44.187Z,14.63
2023-03-29T23:46:11.733Z,15.77
2023-03-29T23:48:38.568Z,11.40
2023-03-29T23:51:05.613Z,12.52
2023-03-29T23:53:32.169Z,15.18
2023-03-29T23:56:02.917Z,10.90
2023-03-29T23:58:30.101Z,16.42
